Time;durP1;ratioP1;P1;durP2;ratioP2;P2;SDS_P1;SDS_P2;PMS_P1;PMS_P2;Temp;Humidity;BMP_temperature;BMP_pressure;BME280_temperature;BME280_humidity;BME280_pressure;Samples;Min_cycle;Max_cycle;Signal;HPM_P1;HPM_P2
2022/10/30 00:01:48;;;;;;;26.27;14.18;;;;;;;9.99;64.67;95964.63;5080171;28;20555;-75
2022/10/30 00:04:14;;;;;;;30.65;15.65;;;;;;;10.49;64.71;96053.69;5080036;28;20034;-75
2022/10/30 00:06:39;;;;;;;29.40;14.85;;;;;;;10.14;64.81;95998.47;5098722;28;20043;-75
2022/10/30 00:09:04;;;;;;;34.88;14.27;;;;;;;10.37;64.32;96030.00;5079567;28;20068;-75
2022/10/30 00:11:30;;;;;;;35.47;15.30;;;;;;;10.22;64.97;96013.91;5098856;28;20070;-75
2022/10/30 00:13:55;;;;;;;31.98;14.93;;;;;;;10.38;64.94;96054.63;5080002;28;20473;-75
2022/10/30 00:16:21;;;;;;;28.52;14.20;;;;;;;9.90;64.94;95973.28;5098133;28;20045;-75
2022/10/30 00:18:46;;;;;;;29.52;13.75;;;;;;;10.05;64.76;96000.75;5079279;28;20035;-75
2022/10/30 00:21:14;;;;;;;23.50;13.82;;;;;;;10.22;65.05;96032.47;5098471;28;20918;-76
2022/10/30 00:23:48;;;;;;;29.88;15.20;;;;;;;10.10;64.53;96013.25;5079752;28;20074;-75
2022/10/30 00:26:14;;;;;;;26.45;13.63;;;;;;;10.04;64.84;96007.09;5078862;28;20071;-75
2022/10/30 00:28:39;;;;;;;30.92;14.57;;;;;;;10.21;65.60;96048.66;5097840;28;20035;-74
2022/10/30 00:31:05;;;;;;;32.10;15.65;;;;;;;10.04;65.21;96033.59;5097538;28;20053;-74
2022/10/30 00:33:31;;;;;;;36.17;15.77;;;;;;;9.84;65.29;95982.25;5079346;28;20576;-74
2022/10/30 00:35:57;;;;;;;33.42;16.00;;;;;;;9.98;65.54;96012.59;5097513;28;20045;-74
2022/10/30 00:38:23;;;;;;;32.50;16.08;;;;;;;9.94;64.87;96004.34;5079338;28;20413;-75
2022/10/30 00:40:48;;;;;;;41.53;16.60;;;;;;;10.22;65.26;96042.31;5097827;28;20130;-74
2022/10/30 00:43:38;;;;;;;30.55;17.05;;;;;;;10.28;65.61;96047.41;5079278;28;20177;-75
2022/10/30 00:46:11;;;;;;;44.90;16.92;;;;;;;10.10;65.51;96017.75;5097859;28;20044;-74
2022/10/30 00:48:36;;;;;;;31.95;15.90;;;;;;;10.03;65.25;96002.84;5079440;28;20480;-74
2022/10/30 00:51:06;;;;;;;32.95;16.20;;;;;;;9.57;65.58;95940.63;5079363;28;20031;-74
2022/10/30 00:53:32;;;;;;;31.92;16.63;;;;;;;10.29;65.24;96043.69;5098116;28;20063;-74
2022/10/30 00:56:04;;;;;;;27.15;15.85;;;;;;;10.04;65.14;95999.16;5097804;28;20891;-74
2022/10/30 00:58:36;;;;;;;30.13;15.85;;;;;;;9.91;65.22;95981.00;5097997;28;20429;-74
2022/10/30 01:01:06;;;;;;;35.00;16.58;;;;;;;10.02;64.69;95995.94;5097511;28;20074;-74
2022/10/30 01:03:34;;;;;;;37.60;16.30;;;;;;;9.86;65.07;95972.97;5098357;28;20027;-74
2022/10/30 01:06:05;;;;;;;33.35;17.15;;;;;;;10.24;65.86;96037.53;5075688;28;20127;-74
2022/10/30 01:08:31;;;;;;;37.25;16.40;;;;;;;10.25;65.63;96031.19;5075469;28;20036;-74
2022/10/30 01:10:58;;;;;;;37.35;16.95;;;;;;;10.00;65.50;96000.69;5085116;28;20051;-74
2022/10/30 01:13:25;;;;;;;32.45;17.25;;;;;;;10.05;65.27;96005.25;5075809;28;20062;-74
2022/10/30 01:16:17;;;;;;;33.47;17.13;;;;;;;9.66;65.21;95948.94;5075972;28;20032;-74
2022/10/30 01:18:55;;;;;;;34.22;16.55;;;;;;;10.06;65.72;96018.25;5093386;28;20046;-74
2022/10/30 01:21:46;;;;;;;33.17;17.25;;;;;;;10.06;65.50;96004.19;5075477;28;20130;-74
2022/10/30 01:24:17;;;;;;;43.35;17.92;;;;;;;9.98;65.46;96004.66;5072923;28;20069;-74
2022/10/30 01:27:12;;;;;;;40.92;19.17;;;;;;;9.96;64.97;96006.75;5097340;28;20480;-74
2022/10/30 01:29:52;;;;;;;37.50;18.08;;;;;;;9.93;65.91;96005.38;5037522;28;20041;-74
2022/10/30 01:32:35;;;;;;;38.08;18.58;;;;;;;9.95;66.03;96010.44;5075590;28;20148;-74
2022/10/30 01:35:09;;;;;;;39.22;17.92;;;;;;;9.97;65.68;96016.28;5097291;28;20044;-74
2022/10/30 01:37:51;;;;;;;34.88;18.95;;;;;;;9.92;65.44;95992.38;5077977;28;20127;-73
2022/10/30 01:40:17;;;;;;;35.75;17.92;;;;;;;9.98;66.14;96004.66;5079256;28;20046;-74
2022/10/30 01:42:54;;;;;;;39.25;18.60;;;;;;;9.94;65.68;95999.03;5078468;28;20497;-74
2022/10/30 01:45:25;;;;;;;37.13;18.27;;;;;;;9.58;66.08;95965.25;5087429;28;20056;-75
2022/10/30 01:48:00;;;;;;;38.35;18.55;;;;;;;9.85;65.90;96003.16;5098844;28;20043;-74
2022/10/30 01:50:46;;;;;;;42.60;19.45;;;;;;;9.88;66.29;96001.88;5082140;28;20077;-74
2022/10/30 01:53:28;;;;;;;38.85;18.63;;;;;;;9.66;66.27;95978.88;5101231;27;20094;-75
2022/10/30 01:56:18;;;;;;;38.42;17.98;;;;;;;9.78;65.63;95997.25;5084590;28;20051;-75
2022/10/30 01:58:57;;;;;;;40.00;18.27;;;;;;;9.61;65.56;95972.72;5090048;27;20030;-76
2022/10/30 02:01:23;;;;;;;45.13;19.60;;;;;;;9.40;66.28;95944.38;5121940;27;20111;-74
2022/10/30 02:03:49;;;;;;;42.58;23.35;;;;;;;9.34;66.43;95921.56;5109552;27;20035;-74
2022/10/30 02:06:14;;;;;;;42.40;23.00;;;;;;;9.61;66.46;95972.72;5096122;27;20041;-73
2022/10/30 02:08:40;;;;;;;42.03;21.17;;;;;;;9.22;66.53;95911.91;5121563;27;20142;-74
2022/10/30 02:11:05;;;;;;;46.72;22.40;;;;;;;9.43;66.38;95941.25;5104029;27;20042;-73
2022/10/30 02:13:31;;;;;;;41.50;20.92;;;;;;;9.41;65.92;95941.50;5102919;27;20495;-76
2022/10/30 02:15:58;;;;;;;37.58;20.02;;;;;;;9.51;66.17;95949.56;5100983;27;20796;-74
2022/10/30 02:18:23;;;;;;;50.70;24.13;;;;;;;9.33;66.20;95912.00;5100541;27;20042;-74
2022/10/30 02:20:49;;;;;;;51.30;22.73;;;;;;;9.56;66.60;95949.63;5081898;28;20497;-74
2022/10/30 02:23:17;;;;;;;49.33;21.50;;;;;;;9.54;66.60;95951.69;5102425;27;20496;-74
2022/10/30 02:25:44;;;;;;;40.30;21.52;;;;;;;9.29;66.13;95909.88;5096598;28;20035;-74
2022/10/30 02:28:09;;;;;;;44.47;21.02;;;;;;;9.47;66.51;95952.94;5082137;28;20829;-76
2022/10/30 02:30:35;;;;;;;46.45;20.45;;;;;;;9.26;66.27;95933.38;5081286;28;20035;-74
2022/10/30 02:33:01;;;;;;;43.92;21.67;;;;;;;9.54;66.05;95974.72;5100122;28;20723;-74
2022/10/30 02:35:26;;;;;;;44.10;22.30;;;;;;;9.35;66.79;95957.56;5099950;28;20023;-73
2022/10/30 02:37:51;;;;;;;39.45;21.80;;;;;;;9.13;66.23;95923.97;5081200;28;20050;-73
2022/10/30 02:40:17;;;;;;;45.20;22.75;;;;;;;9.03;66.62;95915.88;5094038;27;20468;-73
2022/10/30 02:42:42;;;;;;;41.58;23.67;;;;;;;9.29;66.47;95967.31;5101205;27;20035;-73
2022/10/30 02:45:08;;;;;;;45.88;24.42;;;;;;;9.12;67.06;95937.44;5108459;27;20047;-73
2022/10/30 02:47:34;;;;;;;40.38;22.67;;;;;;;8.91;66.59;95915.22;5080808;28;20042;-74
2022/10/30 02:49:59;;;;;;;43.10;23.00;;;;;;;9.42;66.82;95997.91;5099683;28;20151;-73
2022/10/30 02:52:24;;;;;;;51.33;23.13;;;;;;;9.11;66.52;95947.22;5080428;28;20040;-74
2022/10/30 02:54:50;;;;;;;45.15;23.55;;;;;;;9.36;67.15;95989.09;5098921;27;20034;-74
2022/10/30 02:57:15;;;;;;;45.95;23.90;;;;;;;9.03;67.02;95928.31;5101945;27;20441;-74
2022/10/30 02:59:41;;;;;;;50.72;23.33;;;;;;;9.38;67.13;95994.94;5098744;28;20034;-74
2022/10/30 03:02:06;;;;;;;45.10;24.15;;;;;;;9.38;66.61;95994.94;5099182;28;20485;-75
2022/10/30 03:04:31;;;;;;;48.35;25.33;;;;;;;9.01;66.56;95940.97;5103195;27;20037;-76
2022/10/30 03:06:57;;;;;;;42.40;23.88;;;;;;;9.00;66.58;95942.06;5119212;27;20403;-76
2022/10/30 03:09:22;;;;;;;51.53;23.98;;;;;;;9.17;67.13;95983.28;5119004;27;20855;-76
2022/10/30 03:11:48;;;;;;;50.05;24.10;;;;;;;8.92;66.58;95945.91;5118976;27;20031;-76
2022/10/30 03:14:13;;;;;;;49.00;24.42;;;;;;;9.32;66.22;96000.41;5090877;28;20114;-76
2022/10/30 03:16:39;;;;;;;46.13;25.73;;;;;;;8.99;66.69;95973.00;5098799;28;20019;-76
2022/10/30 03:19:04;;;;;;;57.55;24.98;;;;;;;9.24;66.64;96006.91;5080243;28;20088;-76
2022/10/30 03:21:30;;;;;;;44.30;25.83;;;;;;;9.25;66.86;96011.19;5092208;27;20179;-76
2022/10/30 03:23:56;;;;;;;49.33;26.00;;;;;;;9.03;66.94;95982.03;5118696;27;20042;-76
2022/10/30 03:26:21;;;;;;;48.08;26.30;;;;;;;9.00;66.82;95984.38;5118866;27;20092;-77
2022/10/30 03:28:47;;;;;;;58.97;26.52;;;;;;;9.13;67.41;96002.56;5100770;27;20035;-76
2022/10/30 03:31:15;;;;;;;49.42;25.73;;;;;;;9.04;67.16;95982.84;5099911;27;20126;-76
2022/10/30 03:33:41;;;;;;;48.13;25.50;;;;;;;9.07;67.10;95982.38;5083978;28;20048;-76
2022/10/30 03:36:09;;;;;;;41.30;24.63;;;;;;;8.79;67.94;95948.88;5097626;28;20565;-76
2022/10/30 03:38:34;;;;;;;47.17;24.15;;;;;;;9.13;67.41;96011.28;5098035;27;20031;-76
2022/10/30 03:41:00;;;;;;;48.40;23.90;;;;;;;9.15;68.03;96009.22;5099526;27;20038;-76
2022/10/30 03:43:26;;;;;;;46.50;21.75;;;;;;;8.94;67.48;95966.81;5115484;27;20090;-76
2022/10/30 03:45:54;;;;;;;37.72;24.23;;;;;;;9.20;68.01;96013.75;5098046;28;20039;-75
2022/10/30 03:48:25;;;;;;;45.88;23.65;;;;;;;9.12;67.87;95985.88;5080045;28;20027;-75
2022/10/30 03:50:54;;;;;;;43.03;23.13;;;;;;;9.10;67.61;95993.25;5098685;28;20031;-75
2022/10/30 03:53:22;;;;;;;35.38;20.80;;;;;;;9.10;68.06;95979.22;5094501;27;20404;-75
2022/10/30 03:55:48;;;;;;;41.78;21.90;;;;;;;9.03;67.49;95968.00;5118946;27;20463;-74
2022/10/30 03:58:14;;;;;;;44.58;22.02;;;;;;;9.19;67.25;95988.34;5118371;27;20042;-74
2022/10/30 04:00:39;;;;;;;36.13;21.63;;;;;;;8.82;66.80;95933.34;5094581;27;20031;-74
2022/10/30 04:03:09;;;;;;;37.40;22.25;;;;;;;9.12;67.37;95977.13;5118249;27;20717;-75
2022/10/30 04:05:35;;;;;;;43.28;21.75;;;;;;;9.08;67.25;95982.09;5099421;27;20066;-75
2022/10/30 04:08:04;;;;;;;36.75;20.92;;;;;;;8.69;67.47;95946.91;5098910;27;20532;-75
2022/10/30 04:10:30;;;;;;;37.38;20.55;;;;;;;9.00;67.46;95985.16;5110447;27;20153;-75
2022/10/30 04:13:02;;;;;;;33.40;20.65;;;;;;;9.04;67.49;95998.72;5105520;27;20806;-74
2022/10/30 04:15:28;;;;;;;38.28;21.48;;;;;;;9.01;67.75;95997.34;5088363;28;20028;-75
2022/10/30 04:17:54;;;;;;;38.75;21.55;;;;;;;8.85;67.45;95969.88;5078652;28;20599;-75
2022/10/30 04:20:21;;;;;;;42.20;22.15;;;;;;;9.07;67.93;95992.94;5078637;28;20035;-75
2022/10/30 04:22:47;;;;;;;43.83;21.63;;;;;;;9.09;67.33;95999.56;5078834;28;20042;-75
2022/10/30 04:25:12;;;;;;;37.70;21.95;;;;;;;9.11;67.70;95994.03;5078438;28;20581;-75
2022/10/30 04:27:42;;;;;;;42.33;21.48;;;;;;;8.96;68.04;95992.00;5094950;28;20043;-75
2022/10/30 04:30:10;;;;;;;43.13;22.35;;;;;;;8.99;68.33;95983.59;5096358;28;20536;-75
2022/10/30 04:32:35;;;;;;;36.97;19.65;;;;;;;9.03;67.62;95982.03;5096907;28;20129;-75
2022/10/30 04:35:02;;;;;;;43.45;22.05;;;;;;;9.05;67.34;95990.53;5096865;28;20106;-75
2022/10/30 04:37:28;;;;;;;38.40;20.80;;;;;;;8.54;67.18;95911.53;5097413;28;20118;-75
2022/10/30 04:39:53;;;;;;;41.35;21.88;;;;;;;9.05;67.18;95995.03;5095842;28;20458;-75
2022/10/30 04:42:18;;;;;;;51.67;23.02;;;;;;;9.06;67.46;95994.00;5081752;27;20031;-74
2022/10/30 04:44:44;;;;;;;49.30;24.55;;;;;;;9.04;66.61;95996.06;5093497;28;20043;-75
2022/10/30 04:47:09;;;;;;;48.97;24.30;;;;;;;9.05;66.56;96002.97;5078517;28;20496;-74
2022/10/30 04:49:35;;;;;;;44.92;24.65;;;;;;;8.62;65.77;95938.31;5078448;28;20162;-75
2022/10/30 04:52:00;;;;;;;50.22;23.73;;;;;;;8.88;66.43;95997.69;5078365;28;20032;-75
2022/10/30 04:54:27;;;;;;;43.40;21.58;;;;;;;8.92;66.36;96000.66;5078118;28;20516;-75
2022/10/30 04:56:53;;;;;;;38.22;21.27;;;;;;;8.87;66.78;96001.38;5089522;28;20145;-75
2022/10/30 04:59:18;;;;;;;40.10;21.25;;;;;;;8.89;66.98;96001.94;5087362;28;20062;-74
2022/10/30 05:01:43;;;;;;;41.75;21.38;;;;;;;8.48;66.76;95934.41;5078416;28;20031;-75
2022/10/30 05:04:09;;;;;;;38.90;21.60;;;;;;;8.82;66.98;96003.97;5091900;28;20126;-75
2022/10/30 05:06:34;;;;;;;46.20;21.45;;;;;;;8.80;67.34;96006.03;5098940;28;20039;-74
2022/10/30 05:09:00;;;;;;;40.50;20.05;;;;;;;8.81;67.58;96010.28;5117329;28;20068;-74
2022/10/30 05:11:25;;;;;;;38.55;19.95;;;;;;;8.42;66.97;95952.06;5099040;28;20035;-75
2022/10/30 05:13:51;;;;;;;35.92;20.40;;;;;;;8.52;67.16;95967.28;5079174;28;20031;-75
2022/10/30 05:16:16;;;;;;;40.47;22.52;;;;;;;8.73;67.37;96011.50;5078037;28;20810;-75
2022/10/30 05:18:41;;;;;;;44.13;22.55;;;;;;;8.28;67.55;95945.47;5078207;28;20528;-75
2022/10/30 05:21:08;;;;;;;43.95;23.13;;;;;;;8.55;67.40;95985.28;5078629;28;20119;-75
2022/10/30 05:23:33;;;;;;;46.35;24.70;;;;;;;8.40;67.70;95963.91;5101095;28;20038;-74
2022/10/30 05:26:00;;;;;;;40.90;23.48;;;;;;;8.58;67.81;95994.59;5088429;27;20031;-74
2022/10/30 05:28:25;;;;;;;49.65;26.38;;;;;;;8.60;67.58;95995.16;5093841;28;20039;-77
2022/10/30 05:30:54;;;;;;;46.83;27.75;;;;;;;8.04;67.66;95907.81;5092426;27;20031;-74
2022/10/30 05:33:20;;;;;;;52.70;28.65;;;;;;;8.74;67.70;96017.59;5101778;27;20034;-74
2022/10/30 05:35:45;;;;;;;51.83;27.05;;;;;;;8.21;68.82;95938.72;5101649;27;20023;-74
2022/10/30 05:38:11;;;;;;;58.30;31.23;;;;;;;8.08;67.99;95914.25;5102378;27;20074;-74
2022/10/30 05:40:36;;;;;;;52.13;29.13;;;;;;;8.51;67.90;95978.88;5121139;27;20529;-74
2022/10/30 05:43:03;;;;;;;62.90;33.00;;;;;;;8.51;68.30;95977.06;5120379;27;20868;-76
2022/10/30 05:45:28;;;;;;;64.57;34.75;;;;;;;8.32;68.13;95945.78;5100977;27;20034;-75
2022/10/30 05:47:55;;;;;;;61.70;36.13;;;;;;;8.44;67.95;95957.09;5100407;27;20045;-75
2022/10/30 05:50:20;;;;;;;66.18;35.42;;;;;;;8.57;68.41;95977.91;5100131;28;20032;-75
2022/10/30 05:52:45;;;;;;;59.05;33.08;;;;;;;8.88;68.33;96016.22;5082059;28;20031;-75
2022/10/30 05:55:11;;;;;;;72.07;35.10;;;;;;;8.82;68.47;96010.06;5100240;28;20039;-75
2022/10/30 05:57:36;;;;;;;76.85;35.75;;;;;;;8.78;68.41;95990.41;5105422;27;20741;-74
2022/10/30 06:00:02;;;;;;;63.75;36.50;;;;;;;8.73;68.51;95971.81;5095340;28;20145;-74
2022/10/30 06:02:27;;;;;;;71.28;40.83;;;;;;;9.01;68.14;96018.50;5081232;28;20031;-75
2022/10/30 06:04:53;;;;;;;70.95;40.35;;;;;;;8.84;68.00;95978.88;5088704;27;20117;-75
2022/10/30 06:07:18;;;;;;;67.35;35.60;;;;;;;9.05;67.70;95992.38;5120143;27;20035;-75
2022/10/30 06:09:43;;;;;;;70.65;35.50;;;;;;;9.21;67.52;96007.44;5120466;27;20116;-77
2022/10/30 06:12:09;;;;;;;56.17;32.40;;;;;;;9.27;67.61;96017.03;5089408;28;20042;-75
2022/10/30 06:14:34;;;;;;;58.83;32.17;;;;;;;9.32;67.60;96011.78;5081163;28;20065;-75
2022/10/30 06:17:00;;;;;;;54.15;27.77;;;;;;;9.26;66.87;95995.06;5081299;28;20043;-75
2022/10/30 06:19:25;;;;;;;46.25;26.00;;;;;;;9.22;66.12;95983.38;5081467;28;20248;-75
2022/10/30 06:21:50;;;;;;;49.55;25.42;;;;;;;9.25;65.97;95974.13;5099788;28;20036;-74
2022/10/30 06:24:16;;;;;;;45.25;25.40;;;;;;;9.43;65.71;95997.66;5099595;28;20048;-75
2022/10/30 06:26:41;;;;;;;52.63;24.45;;;;;;;9.57;65.09;96016.63;5099399;28;20107;-75
2022/10/30 06:29:07;;;;;;;48.63;26.05;;;;;;;9.02;64.87;95932.00;5080892;28;20023;-75
2022/10/30 06:31:32;;;;;;;53.80;26.00;;;;;;;9.46;65.25;95991.84;5099105;28;20114;-75
2022/10/30 06:33:57;;;;;;;60.47;28.05;;;;;;;9.37;64.42;95995.19;5097945;28;20035;-75
2022/10/30 06:36:23;;;;;;;64.40;28.63;;;;;;;9.17;64.33;95956.81;5080755;28;20027;-75
2022/10/30 06:38:48;;;;;;;53.65;28.75;;;;;;;9.60;64.24;96022.25;5080330;28;20032;-75
2022/10/30 06:41:14;;;;;;;48.55;27.83;;;;;;;9.41;63.69;95980.41;5099563;28;20035;-75
2022/10/30 06:43:39;;;;;;;47.30;27.85;;;;;;;9.71;63.42;96027.63;5099069;28;20047;-75
2022/10/30 06:46:05;;;;;;;48.25;28.63;;;;;;;9.57;63.99;95998.88;5093737;27;20034;-75
2022/10/30 06:48:30;;;;;;;55.67;28.73;;;;;;;9.51;63.86;95975.25;5119820;27;20031;-75
2022/10/30 06:50:57;;;;;;;57.40;30.08;;;;;;;9.42;63.71;95990.75;5101067;27;20051;-75
2022/10/30 06:53:23;;;;;;;62.03;31.13;;;;;;;9.47;64.78;96025.22;5119057;27;20549;-75
2022/10/30 06:55:56;;;;;;;55.70;31.73;;;;;;;9.52;64.15;96027.97;5100519;27;20035;-75
2022/10/30 06:58:22;;;;;;;62.47;30.50;;;;;;;9.59;64.46;96025.94;5118940;27;20542;-75
2022/10/30 07:00:47;;;;;;;56.90;31.00;;;;;;;9.39;64.79;96008.97;5081336;28;20035;-75
2022/10/30 07:03:13;;;;;;;51.08;29.77;;;;;;;9.31;64.40;95967.84;5079901;28;20092;-74
2022/10/30 07:05:38;;;;;;;59.85;28.90;;;;;;;9.33;63.80;95946.41;5098377;28;20117;-76
2022/10/30 07:08:04;;;;;;;57.05;29.77;;;;;;;9.82;63.77;96014.28;5083779;27;20050;-76
2022/10/30 07:10:29;;;;;;;57.63;28.75;;;;;;;9.97;63.52;96027.69;5098356;28;20034;-75
2022/10/30 07:12:57;;;;;;;48.17;25.92;;;;;;;10.03;63.55;96026.69;5083751;28;20035;-75
2022/10/30 07:15:23;;;;;;;53.50;27.90;;;;;;;9.96;63.79;95998.78;5085460;27;20158;-76
2022/10/30 07:17:54;;;;;;;50.30;27.50;;;;;;;10.20;63.32;96017.88;5099763;27;20062;-75
2022/10/30 07:20:20;;;;;;;50.23;27.53;;;;;;;10.26;62.63;96014.22;5099900;27;20120;-75
2022/10/30 07:22:45;;;;;;;55.40;30.60;;;;;;;9.93;63.81;95946.28;5118675;27;20058;-76
2022/10/30 07:25:10;;;;;;;43.85;27.17;;;;;;;9.85;63.71;95938.78;5103195;27;20142;-75
2022/10/30 07:27:44;;;;;;;55.28;30.15;;;;;;;10.12;64.15;95973.25;5098602;28;20078;-75
2022/10/30 07:30:11;;;;;;;47.50;28.92;;;;;;;10.03;64.34;95935.78;5097959;27;20047;-75
2022/10/30 07:32:37;;;;;;;50.97;28.52;;;;;;;9.87;65.01;95904.91;5099109;27;20039;-76
2022/10/30 07:35:03;;;;;;;49.72;26.08;;;;;;;10.42;65.89;96006.16;5079593;28;20042;-76
2022/10/30 07:37:29;;;;;;;50.35;28.42;;;;;;;10.13;66.38;95961.59;5098800;28;20987;-75
2022/10/30 07:39:54;;;;;;;40.20;26.65;;;;;;;10.29;65.70;95973.97;5097858;28;20027;-75
2022/10/30 07:42:19;;;;;;;48.95;26.77;;;;;;;10.59;65.90;96010.56;5097770;28;20039;-75
2022/10/30 07:44:45;;;;;;;49.50;25.75;;;;;;;10.30;67.12;95959.63;5078217;28;20472;-75
2022/10/30 07:47:10;;;;;;;49.05;27.20;;;;;;;10.29;67.18;95950.91;5079273;28;20608;-75
2022/10/30 07:49:35;;;;;;;48.95;26.27;;;;;;;10.74;66.73;96003.50;5079338;28;20078;-75
2022/10/30 07:52:01;;;;;;;47.92;27.67;;;;;;;10.53;67.18;95964.59;5097711;28;20132;-76
2022/10/30 07:54:26;;;;;;;47.45;24.25;;;;;;;10.38;67.01;95932.66;5079270;28;20092;-76
2022/10/30 07:56:52;;;;;;;44.97;24.10;;;;;;;10.71;67.92;95974.81;5090569;27;20042;-76
2022/10/30 07:59:17;;;;;;;37.25;23.00;;;;;;;10.44;68.26;95921.88;5104743;27;20032;-77
2022/10/30 08:01:43;;;;;;;45.88;24.33;;;;;;;10.54;68.06;95931.72;5097943;28;20035;-77
2022/10/30 08:04:10;;;;;;;45.03;24.65;;;;;;;10.46;68.09;95908.31;5079198;28;20032;-76
2022/10/30 08:06:35;;;;;;;47.05;24.52;;;;;;;10.70;67.91;95933.44;5078995;28;20110;-77
2022/10/30 08:09:01;;;;;;;34.90;22.23;;;;;;;10.73;68.03;95924.19;5079214;28;20132;-77
2022/10/30 08:11:26;;;;;;;36.97;23.45;;;;;;;10.87;68.20;95921.88;5079178;28;20039;-77
2022/10/30 08:13:51;;;;;;;41.00;24.58;;;;;;;11.29;68.02;95977.59;5098400;27;20096;-76
2022/10/30 08:16:17;;;;;;;43.45;24.63;;;;;;;10.87;67.34;95895.31;5098244;27;20032;-77
2022/10/30 08:18:43;;;;;;;42.15;25.35;;;;;;;11.32;67.63;95969.09;5115378;27;20780;-77
2022/10/30 08:21:09;;;;;;;44.85;24.80;;;;;;;11.11;67.80;95915.91;5096865;28;20035;-75
2022/10/30 08:23:34;;;;;;;41.70;24.77;;;;;;;11.18;67.82;95937.69;5097362;28;20035;-75
2022/10/30 08:26:00;;;;;;;46.10;24.38;;;;;;;11.36;67.81;95933.81;5083519;27;20154;-75
2022/10/30 08:28:25;;;;;;;34.70;22.50;;;;;;;11.44;67.54;95935.16;5098879;27;20027;-75
2022/10/30 08:30:51;;;;;;;33.85;22.98;;;;;;;11.28;67.00;95905.09;5117892;27;20065;-75
2022/10/30 08:33:16;;;;;;;33.33;20.00;;;;;;;11.71;67.63;95957.03;5099457;27;20793;-75
2022/10/30 08:35:53;;;;;;;42.65;24.25;;;;;;;11.70;67.54;95955.44;5108630;27;20569;-75
2022/10/30 08:38:19;;;;;;;43.92;23.98;;;;;;;11.78;67.00;95957.59;5097171;28;20035;-75
2022/10/30 08:40:44;;;;;;;41.80;23.02;;;;;;;11.36;66.53;95896.63;5096897;28;20116;-75
2022/10/30 08:43:10;;;;;;;41.13;23.08;;;;;;;11.57;66.73;95914.22;5097424;28;20032;-75
2022/10/30 08:45:35;;;;;;;37.80;23.77;;;;;;;11.56;66.83;95901.19;5080280;28;20036;-78
2022/10/30 08:48:02;;;;;;;42.50;23.02;;;;;;;12.04;66.94;95957.69;5078511;28;20161;-75
2022/10/30 08:50:29;;;;;;;33.70;20.73;;;;;;;12.04;66.79;95953.16;5096632;28;20035;-74
2022/10/30 08:52:54;;;;;;;39.58;21.50;;;;;;;12.15;67.31;95959.28;5098206;28;20054;-75
2022/10/30 08:55:20;;;;;;;38.22;19.45;;;;;;;11.58;66.52;95860.03;5098439;28;20489;-75
2022/10/30 08:57:45;;;;;;;36.38;21.10;;;;;;;12.10;66.44;95917.53;5115443;28;20038;-74
2022/10/30 09:00:11;;;;;;;34.42;20.27;;;;;;;12.26;66.57;95923.66;5078641;28;20028;-77
2022/10/30 09:02:39;;;;;;;36.47;20.75;;;;;;;12.49;66.10;95940.94;5082632;28;20033;-75
2022/10/30 09:05:06;;;;;;;39.72;21.58;;;;;;;12.52;65.99;95935.88;5117294;28;20086;-75
2022/10/30 09:07:32;;;;;;;30.13;20.10;;;;;;;12.58;65.89;95934.84;5116881;28;20045;-75
2022/10/30 09:09:57;;;;;;;34.00;20.27;;;;;;;12.34;65.88;95894.69;5098624;28;20031;-75
2022/10/30 09:12:23;;;;;;;33.58;20.20;;;;;;;12.57;65.56;95937.75;5116628;28;20034;-75
2022/10/30 09:14:48;;;;;;;32.00;19.73;;;;;;;12.21;65.21;95860.63;5108228;28;20024;-75
2022/10/30 09:17:14;;;;;;;39.50;19.80;;;;;;;12.31;64.68;95867.81;5081423;28;20039;-76
2022/10/30 09:19:39;;;;;;;30.88;19.58;;;;;;;12.76;65.03;95928.94;5078103;28;20067;-75
2022/10/30 09:22:05;;;;;;;34.42;20.23;;;;;;;12.51;64.72;95886.41;5077907;28;20040;-76
2022/10/30 09:24:30;;;;;;;40.03;20.98;;;;;;;12.56;64.77;95886.41;5078059;28;20287;-76
2022/10/30 09:26:56;;;;;;;37.78;20.92;;;;;;;12.65;64.44;95884.00;5077730;28;20083;-76
2022/10/30 09:29:22;;;;;;;28.15;19.60;;;;;;;12.58;64.35;95873.63;5077810;28;20563;-76
2022/10/30 09:31:47;;;;;;;35.85;19.65;;;;;;;12.68;63.77;95865.63;5077955;28;20728;-76
2022/10/30 09:34:12;;;;;;;34.03;19.58;;;;;;;12.87;63.47;95887.16;5093964;28;20070;-76
2022/10/30 09:36:38;;;;;;;32.75;20.42;;;;;;;13.12;63.91;95916.34;5078360;28;20024;-75
2022/10/30 09:39:03;;;;;;;26.48;19.42;;;;;;;13.13;63.16;95899.34;5078202;28;20092;-76
2022/10/30 09:41:50;;;;;;;37.95;20.92;;;;;;;13.23;63.27;95905.69;5096488;28;20507;-75
2022/10/30 09:44:15;;;;;;;37.28;20.05;;;;;;;13.34;63.23;95897.41;5095946;28;20055;-75
2022/10/30 09:46:50;;;;;;;29.58;19.88;;;;;;;13.45;62.71;95890.16;5109111;28;20393;-75
2022/10/30 09:49:43;;;;;;;26.00;17.77;;;;;;;13.55;62.48;95891.97;5097249;28;20066;-75
2022/10/30 09:52:27;;;;;;;33.25;18.38;;;;;;;13.70;60.96;95847.38;5098111;28;20038;-76
2022/10/30 09:55:12;;;;;;;29.02;18.23;;;;;;;14.75;58.92;95860.13;5062607;28;20039;-75
2022/10/30 09:57:56;;;;;;;35.33;17.77;;;;;;;16.44;55.19;95879.03;5082648;27;20172;-76
2022/10/30 10:00:26;;;;;;;29.42;16.92;;;;;;;17.82;51.51;95870.78;5116957;28;20043;-77
2022/10/30 10:03:00;;;;;;;29.07;17.07;;;;;;;19.11;47.91;95874.34;5116939;28;20039;-77
2022/10/30 10:05:42;;;;;;;24.77;14.80;;;;;;;20.14;44.70;95836.06;5097654;28;20031;-77
2022/10/30 10:08:16;;;;;;;23.58;12.95;;;;;;;21.13;42.63;95861.88;5117503;27;20531;-78
2022/10/30 10:10:44;;;;;;;25.33;13.45;;;;;;;21.92;40.74;95861.16;5082688;28;20047;-77
2022/10/30 10:13:37;;;;;;;22.10;12.65;;;;;;;21.61;40.06;95849.91;5081207;28;20792;-77
2022/10/30 10:16:21;;;;;;;20.20;13.07;;;;;;;22.04;39.66;95841.56;5081727;28;20134;-77
2022/10/30 10:18:54;;;;;;;25.45;13.52;;;;;;;21.52;40.07;95787.09;5081203;28;20051;-77
2022/10/30 10:21:25;;;;;;;23.38;13.07;;;;;;;21.83;39.55;95800.22;5099702;28;20040;-77
2022/10/30 10:24:01;;;;;;;25.80;11.68;;;;;;;21.61;39.76;95793.25;5080661;28;20054;-77
2022/10/30 10:26:31;;;;;;;24.42;11.60;;;;;;;21.27;40.81;95821.25;5096107;28;20039;-77
2022/10/30 10:29:21;;;;;;;24.05;11.43;;;;;;;21.27;40.56;95817.75;5080942;28;20043;-77
2022/10/30 10:32:24;;;;;;;27.17;11.35;;;;;;;20.37;42.04;95812.47;5056423;28;20062;-77
2022/10/30 10:34:55;;;;;;;18.50;10.02;;;;;;;20.13;42.34;95820.25;5092099;27;20786;-77
2022/10/30 10:37:33;;;;;;;18.33;9.73;;;;;;;19.97;43.06;95807.28;5106121;27;20474;-77
2022/10/30 10:40:09;;;;;;;17.15;9.43;;;;;;;19.85;43.46;95804.41;5081086;28;20035;-77
2022/10/30 10:42:46;;;;;;;19.00;9.68;;;;;;;20.16;43.02;95798.06;5098969;28;20034;-77
2022/10/30 10:45:30;;;;;;;18.55;7.70;;;;;;;19.87;42.70;95804.09;5098854;28;20044;-77
2022/10/30 10:48:16;;;;;;;13.07;7.25;;;;;;;19.41;43.18;95775.88;5099532;28;20039;-77
2022/10/30 10:50:57;;;;;;;15.75;7.78;;;;;;;19.61;43.80;95767.19;5094245;27;20042;-77
2022/10/30 10:53:44;;;;;;;17.02;7.85;;;;;;;19.64;43.19;95792.69;5101239;27;20098;-77
2022/10/30 10:56:11;;;;;;;11.25;6.03;;;;;;;19.54;43.04;95787.63;5115924;27;20038;-77
2022/10/30 10:59:21;;;;;;;16.92;7.20;;;;;;;19.47;43.73;95784.59;5119356;27;20096;-77
2022/10/30 11:02:22;;;;;;;18.83;7.53;;;;;;;19.43;43.23;95778.25;5034376;28;20033;-77
2022/10/30 11:04:52;;;;;;;14.30;8.02;;;;;;;19.36;43.50;95748.34;5024778;28;20044;-77
2022/10/30 11:07:20;;;;;;;16.83;7.33;;;;;;;19.63;43.72;95766.91;5081275;27;20401;-78
2022/10/30 11:09:50;;;;;;;16.15;6.13;;;;;;;19.56;42.51;95739.69;5118563;27;20108;-77
2022/10/30 11:12:34;;;;;;;11.77;6.07;;;;;;;19.47;42.67;95736.19;5119235;27;20043;-77
2022/10/30 11:15:15;;;;;;;15.50;7.07;;;;;;;19.67;42.46;95751.72;5100979;27;20062;-77
2022/10/30 11:17:51;;;;;;;14.90;7.40;;;;;;;19.81;42.44;95724.63;5109691;27;20496;-77
2022/10/30 11:20:22;;;;;;;9.48;5.63;;;;;;;19.87;41.72;95721.47;5107619;27;20882;-78
2022/10/30 11:22:50;;;;;;;15.13;5.80;;;;;;;20.33;40.74;95709.16;5100393;27;20038;-78
2022/10/30 11:25:20;;;;;;;19.85;6.15;;;;;;;20.79;40.46;95738.78;5099918;27;20429;-77
2022/10/30 11:27:57;;;;;;;14.27;5.57;;;;;;;20.79;40.07;95701.06;5099884;27;20027;-77
2022/10/30 11:30:25;;;;;;;11.45;6.05;;;;;;;21.12;39.35;95727.38;5099934;27;20057;-77